sensor_id;sensor_type;location;lat;lon;timestamp;pressure;altitude;pressure_sealevel;temperature;humidity
35577;BME280;21680;52.400;16.920;2023-05-28T00:02:19;101441.94;;;11.81;42.23
35577;BME280;21680;52.400;16.920;2023-05-28T00:04:44;101438.30;;;11.77;42.37
35577;BME280;21680;52.400;16.920;2023-05-28T00:07:09;101432.13;;;11.73;42.54
35577;BME280;21680;52.400;16.920;2023-05-28T00:09:58;101432.05;;;11.70;42.57
35577;BME280;21680;52.400;16.920;2023-05-28T00:12:23;101429.48;;;11.67;42.74
35577;BME280;21680;52.400;16.920;2023-05-28T00:14:49;101427.14;;;11.63;42.76
35577;BME280;21680;52.400;16.920;2023-05-28T00:17:15;101425.50;;;11.58;42.81
35577;BME280;21680;52.400;16.920;2023-05-28T00:19:41;101426.05;;;11.53;42.97
35577;BME280;21680;52.400;16.920;2023-05-28T00:22:07;101425.98;;;11.49;43.05
35577;BME280;21680;52.400;16.920;2023-05-28T00:24:33;101421.45;;;11.46;43.16
35577;BME280;21680;52.400;16.920;2023-05-28T00:26:58;101419.97;;;11.43;43.19
35577;BME280;21680;52.400;16.920;2023-05-28T00:29:23;101419.92;;;11.38;43.28
35577;BME280;21680;52.400;16.920;2023-05-28T00:31:55;101417.96;;;11.33;43.23
35577;BME280;21680;52.400;16.920;2023-05-28T00:34:24;101418.72;;;11.27;43.43
35577;BME280;21680;52.400;16.920;2023-05-28T00:36:50;101419.96;;;11.22;43.53
35577;BME280;21680;52.400;16.920;2023-05-28T00:39:16;101420.30;;;11.17;43.78
35577;BME280;21680;52.400;16.920;2023-05-28T00:41:42;101422.90;;;11.14;43.76
35577;BME280;21680;52.400;16.920;2023-05-28T00:44:07;101423.47;;;11.13;44.01
35577;BME280;21680;52.400;16.920;2023-05-28T00:46:35;101424.59;;;11.12;43.94
35577;BME280;21680;52.400;16.920;2023-05-28T00:49:01;101422.56;;;11.08;44.16
35577;BME280;21680;52.400;16.920;2023-05-28T00:51:27;101422.42;;;11.07;44.25
35577;BME280;21680;52.400;16.920;2023-05-28T00:53:53;101424.40;;;11.07;44.33
35577;BME280;21680;52.400;16.920;2023-05-28T00:56:18;101422.85;;;11.05;44.41
35577;BME280;21680;52.400;16.920;2023-05-28T00:58:44;101420.39;;;11.03;44.55
35577;BME280;21680;52.400;16.920;2023-05-28T01:01:14;101417.41;;;11.02;44.62
35577;BME280;21680;52.400;16.920;2023-05-28T01:03:39;101416.42;;;10.99;44.71
35577;BME280;21680;52.400;16.920;2023-05-28T01:06:11;101412.21;;;10.96;44.74
35577;BME280;21680;52.400;16.920;2023-05-28T01:08:38;101410.00;;;10.93;44.88
35577;BME280;21680;52.400;16.920;2023-05-28T01:11:06;101407.58;;;10.91;44.92
35577;BME280;21680;52.400;16.920;2023-05-28T01:13:33;101404.80;;;10.88;45.07
35577;BME280;21680;52.400;16.920;2023-05-28T01:15:59;101407.35;;;10.87;45.09
35577;BME280;21680;52.400;16.920;2023-05-28T01:18:25;101399.42;;;10.84;45.16
35577;BME280;21680;52.400;16.920;2023-05-28T01:20:53;101395.06;;;10.80;45.33
35577;BME280;21680;52.400;16.920;2023-05-28T01:23:19;101393.05;;;10.76;45.33
35577;BME280;21680;52.400;16.920;2023-05-28T01:25:51;101386.78;;;10.70;45.58
35577;BME280;21680;52.400;16.920;2023-05-28T01:28:17;101385.86;;;10.65;45.63
35577;BME280;21680;52.400;16.920;2023-05-28T01:30:44;101389.21;;;10.61;45.65
35577;BME280;21680;52.400;16.920;2023-05-28T01:33:11;101388.41;;;10.58;45.78
35577;BME280;21680;52.400;16.920;2023-05-28T01:35:38;101389.44;;;10.55;45.94
35577;BME280;21680;52.400;16.920;2023-05-28T01:38:03;101389.52;;;10.52;46.00
35577;BME280;21680;52.400;16.920;2023-05-28T01:40:30;101389.75;;;10.50;46.16
35577;BME280;21680;52.400;16.920;2023-05-28T01:42:57;101388.95;;;10.48;46.30
35577;BME280;21680;52.400;16.920;2023-05-28T01:45:24;101391.67;;;10.46;46.43
35577;BME280;21680;52.400;16.920;2023-05-28T01:47:49;101392.81;;;10.44;46.57
35577;BME280;21680;52.400;16.920;2023-05-28T01:50:15;101394.48;;;10.42;46.63
35577;BME280;21680;52.400;16.920;2023-05-28T01:52:41;101397.25;;;10.39;46.67
35577;BME280;21680;52.400;16.920;2023-05-28T01:55:07;101398.23;;;10.37;46.88
35577;BME280;21680;52.400;16.920;2023-05-28T01:57:34;101400.44;;;10.35;46.91
35577;BME280;21680;52.400;16.920;2023-05-28T02:00:00;101399.09;;;10.32;47.11
35577;BME280;21680;52.400;16.920;2023-05-28T02:02:25;101400.45;;;10.29;47.09
35577;BME280;21680;52.400;16.920;2023-05-28T02:04:53;101394.48;;;10.25;47.26
35577;BME280;21680;52.400;16.920;2023-05-28T02:07:19;101393.17;;;10.21;47.30
35577;BME280;21680;52.400;16.920;2023-05-28T02:09:44;101390.73;;;10.18;47.34
35577;BME280;21680;52.400;16.920;2023-05-28T02:12:11;101390.13;;;10.15;47.54
35577;BME280;21680;52.400;16.920;2023-05-28T02:14:36;101387.39;;;10.10;47.66
35577;BME280;21680;52.400;16.920;2023-05-28T02:17:02;101380.88;;;10.07;47.70
35577;BME280;21680;52.400;16.920;2023-05-28T02:19:27;101380.45;;;10.03;47.82
35577;BME280;21680;52.400;16.920;2023-05-28T02:21:53;101378.38;;;10.01;47.98
35577;BME280;21680;52.400;16.920;2023-05-28T02:24:19;101377.19;;;9.99;48.14
35577;BME280;21680;52.400;16.920;2023-05-28T02:26:44;101366.36;;;9.97;48.31
35577;BME280;21680;52.400;16.920;2023-05-28T02:29:10;101373.15;;;9.97;48.31
35577;BME280;21680;52.400;16.920;2023-05-28T02:31:35;101373.21;;;9.94;48.54
35577;BME280;21680;52.400;16.920;2023-05-28T02:34:00;101377.37;;;9.93;48.52
35577;BME280;21680;52.400;16.920;2023-05-28T02:36:25;101382.44;;;9.91;48.55
35577;BME280;21680;52.400;16.920;2023-05-28T02:38:50;101382.84;;;9.89;48.67
35577;BME280;21680;52.400;16.920;2023-05-28T02:41:16;101385.73;;;9.88;48.76
35577;BME280;21680;52.400;16.920;2023-05-28T02:43:41;101383.11;;;9.86;48.78
35577;BME280;21680;52.400;16.920;2023-05-28T02:46:07;101385.83;;;9.85;48.96
35577;BME280;21680;52.400;16.920;2023-05-28T02:48:32;101386.73;;;9.84;49.15
35577;BME280;21680;52.400;16.920;2023-05-28T02:50:58;101386.93;;;9.84;49.08
35577;BME280;21680;52.400;16.920;2023-05-28T02:53:23;101388.73;;;9.83;49.26
35577;BME280;21680;52.400;16.920;2023-05-28T02:55:49;101388.40;;;9.82;49.31
35577;BME280;21680;52.400;16.920;2023-05-28T02:58:14;101393.26;;;9.81;49.32
35577;BME280;21680;52.400;16.920;2023-05-28T03:00:41;101394.54;;;9.80;49.51
35577;BME280;21680;52.400;16.920;2023-05-28T03:03:06;101392.26;;;9.78;49.55
35577;BME280;21680;52.400;16.920;2023-05-28T03:05:32;101393.34;;;9.78;49.62
35577;BME280;21680;52.400;16.920;2023-05-28T03:08:01;101392.27;;;9.77;49.68
35577;BME280;21680;52.400;16.920;2023-05-28T03:10:26;101393.38;;;9.76;49.83
35577;BME280;21680;52.400;16.920;2023-05-28T03:12:52;101394.11;;;9.76;49.88
35577;BME280;21680;52.400;16.920;2023-05-28T03:15:17;101397.36;;;9.74;50.06
35577;BME280;21680;52.400;16.920;2023-05-28T03:17:43;101395.79;;;9.73;50.03
35577;BME280;21680;52.400;16.920;2023-05-28T03:20:09;101388.15;;;9.71;50.11
35577;BME280;21680;52.400;16.920;2023-05-28T03:22:36;101391.05;;;9.70;50.20
35577;BME280;21680;52.400;16.920;2023-05-28T03:25:05;101388.05;;;9.69;50.19
35577;BME280;21680;52.400;16.920;2023-05-28T03:27:33;101390.34;;;9.70;50.41
35577;BME280;21680;52.400;16.920;2023-05-28T03:29:58;101385.17;;;9.69;50.40
35577;BME280;21680;52.400;16.920;2023-05-28T03:32:24;101387.33;;;9.69;50.40
35577;BME280;21680;52.400;16.920;2023-05-28T03:34:49;101385.17;;;9.69;50.51
35577;BME280;21680;52.400;16.920;2023-05-28T03:37:14;101383.40;;;9.69;50.63
35577;BME280;21680;52.400;16.920;2023-05-28T03:39:40;101381.61;;;9.69;50.64
35577;BME280;21680;52.400;16.920;2023-05-28T03:42:06;101385.30;;;9.71;50.60
35577;BME280;21680;52.400;16.920;2023-05-28T03:44:33;101384.89;;;9.73;50.68
35577;BME280;21680;52.400;16.920;2023-05-28T03:46:59;101382.52;;;9.75;50.75
35577;BME280;21680;52.400;16.920;2023-05-28T03:49:25;101382.32;;;9.76;50.88
35577;BME280;21680;52.400;16.920;2023-05-28T03:51:50;101379.43;;;9.77;50.86
35577;BME280;21680;52.400;16.920;2023-05-28T03:54:15;101381.35;;;9.79;51.00
35577;BME280;21680;52.400;16.920;2023-05-28T03:56:41;101383.79;;;9.81;50.94
35577;BME280;21680;52.400;16.920;2023-05-28T03:59:06;101384.98;;;9.83;51.04
35577;BME280;21680;52.400;16.920;2023-05-28T04:01:31;101385.07;;;9.86;51.13
35577;BME280;21680;52.400;16.920;2023-05-28T04:03:59;101386.61;;;9.88;51.19
35577;BME280;21680;52.400;16.920;2023-05-28T04:06:24;101387.83;;;9.89;51.14
35577;BME280;21680;52.400;16.920;2023-05-28T04:08:50;101386.38;;;9.90;51.29
35577;BME280;21680;52.400;16.920;2023-05-28T04:11:15;101384.89;;;9.92;51.34
35577;BME280;21680;52.400;16.920;2023-05-28T04:13:40;101385.39;;;9.94;51.35
35577;BME280;21680;52.400;16.920;2023-05-28T04:16:06;101386.40;;;9.95;51.42
35577;BME280;21680;52.400;16.920;2023-05-28T04:18:32;101387.99;;;9.96;51.48
35577;BME280;21680;52.400;16.920;2023-05-28T04:20:58;101388.66;;;9.98;51.40
35577;BME280;21680;52.400;16.920;2023-05-28T04:23:23;101390.73;;;10.00;51.54
35577;BME280;21680;52.400;16.920;2023-05-28T04:25:49;101384.20;;;10.03;51.55
35577;BME280;21680;52.400;16.920;2023-05-28T04:28:15;101386.84;;;10.05;51.69
35577;BME280;21680;52.400;16.920;2023-05-28T04:30:41;101389.45;;;10.07;51.70
35577;BME280;21680;52.400;16.920;2023-05-28T04:33:06;101387.58;;;10.10;51.83
35577;BME280;21680;52.400;16.920;2023-05-28T04:35:32;101389.25;;;10.14;51.97
35577;BME280;21680;52.400;16.920;2023-05-28T04:37:57;101386.27;;;10.18;51.91
35577;BME280;21680;52.400;16.920;2023-05-28T04:40:24;101384.22;;;10.22;52.04
35577;BME280;21680;52.400;16.920;2023-05-28T04:42:50;101384.07;;;10.27;52.13
35577;BME280;21680;52.400;16.920;2023-05-28T04:45:19;101382.52;;;10.31;52.03
35577;BME280;21680;52.400;16.920;2023-05-28T04:47:44;101377.92;;;10.35;52.19
35577;BME280;21680;52.400;16.920;2023-05-28T04:50:09;101377.98;;;10.39;52.07
35577;BME280;21680;52.400;16.920;2023-05-28T04:52:34;101376.77;;;10.43;52.31
35577;BME280;21680;52.400;16.920;2023-05-28T04:55:04;101371.45;;;10.47;52.29
35577;BME280;21680;52.400;16.920;2023-05-28T04:57:30;101371.10;;;10.52;52.30
35577;BME280;21680;52.400;16.920;2023-05-28T04:59:56;101370.05;;;10.57;52.38
35577;BME280;21680;52.400;16.920;2023-05-28T05:02:21;101371.80;;;10.63;52.35
35577;BME280;21680;52.400;16.920;2023-05-28T05:04:48;101374.23;;;10.71;52.46
35577;BME280;21680;52.400;16.920;2023-05-28T05:07:14;101379.19;;;10.79;52.42
35577;BME280;21680;52.400;16.920;2023-05-28T05:09:40;101372.86;;;10.86;52.56
35577;BME280;21680;52.400;16.920;2023-05-28T05:12:07;101374.29;;;10.92;52.55
35577;BME280;21680;52.400;16.920;2023-05-28T05:14:32;101373.38;;;10.98;52.61
35577;BME280;21680;52.400;16.920;2023-05-28T05:16:58;101369.23;;;11.03;52.71
35577;BME280;21680;52.400;16.920;2023-05-28T05:19:23;101369.41;;;11.09;52.62
35577;BME280;21680;52.400;16.920;2023-05-28T05:21:50;101367.27;;;11.15;52.51
35577;BME280;21680;52.400;16.920;2023-05-28T05:24:15;101370.23;;;11.22;52.63
35577;BME280;21680;52.400;16.920;2023-05-28T05:26:40;101371.63;;;11.28;52.46
35577;BME280;21680;52.400;16.920;2023-05-28T05:29:06;101374.08;;;11.34;52.44
35577;BME280;21680;52.400;16.920;2023-05-28T05:31:31;101367.79;;;11.41;52.44
35577;BME280;21680;52.400;16.920;2023-05-28T05:33:56;101368.13;;;11.51;52.34
35577;BME280;21680;52.400;16.920;2023-05-28T05:36:22;101371.17;;;11.61;52.22
35577;BME280;21680;52.400;16.920;2023-05-28T05:38:47;101368.09;;;11.72;52.21
35577;BME280;21680;52.400;16.920;2023-05-28T05:41:13;101368.33;;;11.81;52.20
35577;BME280;21680;52.400;16.920;2023-05-28T05:43:38;101360.54;;;11.88;52.01
35577;BME280;21680;52.400;16.920;2023-05-28T05:46:03;101364.19;;;11.96;51.89
35577;BME280;21680;52.400;16.920;2023-05-28T05:48:29;101362.43;;;12.04;51.90
35577;BME280;21680;52.400;16.920;2023-05-28T05:50:54;101363.49;;;12.14;51.72
35577;BME280;21680;52.400;16.920;2023-05-28T05:53:21;101367.12;;;12.22;51.59
35577;BME280;21680;52.400;16.920;2023-05-28T05:55:47;101366.95;;;12.31;51.57
35577;BME280;21680;52.400;16.920;2023-05-28T05:58:13;101363.40;;;12.39;51.41
35577;BME280;21680;52.400;16.920;2023-05-28T06:00:39;101362.56;;;12.51;51.29
35577;BME280;21680;52.400;16.920;2023-05-28T06:03:05;101363.60;;;12.61;51.24
35577;BME280;21680;52.400;16.920;2023-05-28T06:05:32;101362.80;;;12.72;51.04
35577;BME280;21680;52.400;16.920;2023-05-28T06:07:57;101366.05;;;12.80;50.98
35577;BME280;21680;52.400;16.920;2023-05-28T06:10:23;101363.19;;;12.89;50.83
35577;BME280;21680;52.400;16.920;2023-05-28T06:12:48;101360.88;;;12.96;50.68
35577;BME280;21680;52.400;16.920;2023-05-28T06:15:13;101362.69;;;13.04;50.56
35577;BME280;21680;52.400;16.920;2023-05-28T06:17:39;101363.29;;;13.11;50.37
35577;BME280;21680;52.400;16.920;2023-05-28T06:20:05;101366.95;;;13.18;50.28
35577;BME280;21680;52.400;16.920;2023-05-28T06:22:32;101360.55;;;13.25;50.18
35577;BME280;21680;52.400;16.920;2023-05-28T06:24:57;101360.76;;;13.33;50.19
35577;BME280;21680;52.400;16.920;2023-05-28T06:27:23;101362.27;;;13.40;49.97
35577;BME280;21680;52.400;16.920;2023-05-28T06:29:48;101360.17;;;13.46;49.85
35577;BME280;21680;52.400;16.920;2023-05-28T06:32:13;101358.28;;;13.53;49.82
35577;BME280;21680;52.400;16.920;2023-05-28T06:34:39;101358.79;;;13.61;49.76
35577;BME280;21680;52.400;16.920;2023-05-28T06:37:05;101355.98;;;13.72;49.72
35577;BME280;21680;52.400;16.920;2023-05-28T06:39:30;101356.09;;;13.81;49.56
35577;BME280;21680;52.400;16.920;2023-05-28T06:41:56;101353.70;;;13.90;49.44
35577;BME280;21680;52.400;16.920;2023-05-28T06:44:22;101352.64;;;13.98;49.34
35577;BME280;21680;52.400;16.920;2023-05-28T06:46:47;101353.05;;;14.08;49.28
35577;BME280;21680;52.400;16.920;2023-05-28T06:49:13;101353.92;;;14.16;49.17
35577;BME280;21680;52.400;16.920;2023-05-28T06:51:38;101352.09;;;14.25;49.00
35577;BME280;21680;52.400;16.920;2023-05-28T06:54:03;101348.86;;;14.32;48.83
35577;BME280;21680;52.400;16.920;2023-05-28T06:56:29;101349.52;;;14.41;48.71
35577;BME280;21680;52.400;16.920;2023-05-28T06:58:54;101349.00;;;14.49;48.65
35577;BME280;21680;52.400;16.920;2023-05-28T07:01:20;101354.91;;;14.56;48.54
35577;BME280;21680;52.400;16.920;2023-05-28T07:03:45;101350.45;;;14.67;48.31
35577;BME280;21680;52.400;16.920;2023-05-28T07:06:11;101350.55;;;14.79;48.03
35577;BME280;21680;52.400;16.920;2023-05-28T07:08:36;101355.45;;;14.89;47.98
35577;BME280;21680;52.400;16.920;2023-05-28T07:11:05;101352.55;;;15.00;47.71
35577;BME280;21680;52.400;16.920;2023-05-28T07:13:31;101351.95;;;15.12;47.51
35577;BME280;21680;52.400;16.920;2023-05-28T07:15:57;101349.32;;;15.21;47.17
35577;BME280;21680;52.400;16.920;2023-05-28T07:18:22;101343.33;;;15.25;47.02
35577;BME280;21680;52.400;16.920;2023-05-28T07:20:49;101345.22;;;15.31;46.77
35577;BME280;21680;52.400;16.920;2023-05-28T07:23:14;101340.30;;;15.39;46.46
35577;BME280;21680;52.400;16.920;2023-05-28T07:25:42;101346.74;;;15.47;46.33
35577;BME280;21680;52.400;16.920;2023-05-28T07:28:07;101348.91;;;15.53;46.01
35577;BME280;21680;52.400;16.920;2023-05-28T07:30:32;101346.70;;;15.61;45.74
35577;BME280;21680;52.400;16.920;2023-05-28T07:32:58;101348.67;;;15.71;45.70
35577;BME280;21680;52.400;16.920;2023-05-28T07:35:23;101346.65;;;15.79;45.40
35577;BME280;21680;52.400;16.920;2023-05-28T07:37:48;101344.88;;;15.84;45.11
35577;BME280;21680;52.400;16.920;2023-05-28T07:40:13;101346.48;;;15.92;44.98
35577;BME280;21680;52.400;16.920;2023-05-28T07:42:39;101347.84;;;15.97;44.85
35577;BME280;21680;52.400;16.920;2023-05-28T07:45:05;101350.10;;;16.04;44.73
35577;BME280;21680;52.400;16.920;2023-05-28T07:47:30;101351.56;;;16.14;44.33
35577;BME280;21680;52.400;16.920;2023-05-28T07:49:56;101350.00;;;16.19;44.27
35577;BME280;21680;52.400;16.920;2023-05-28T07:52:21;101350.33;;;16.26;44.06
35577;BME280;21680;52.400;16.920;2023-05-28T07:54:46;101343.27;;;16.33;43.87
35577;BME280;21680;52.400;16.920;2023-05-28T07:57:11;101343.35;;;16.44;43.78
35577;BME280;21680;52.400;16.920;2023-05-28T07:59:39;101343.06;;;16.53;43.50
35577;BME280;21680;52.400;16.920;2023-05-28T08:02:04;101344.35;;;16.59;43.31
35577;BME280;21680;52.400;16.920;2023-05-28T08:04:29;101338.61;;;16.61;42.96
35577;BME280;21680;52.400;16.920;2023-05-28T08:06:55;101339.43;;;16.66;42.76
35577;BME280;21680;52.400;16.920;2023-05-28T08:09:21;101344.56;;;16.71;42.52
35577;BME280;21680;52.400;16.920;2023-05-28T08:11:46;101344.56;;;16.77;42.51
35577;BME280;21680;52.400;16.920;2023-05-28T08:14:11;101343.67;;;16.86;42.32
35577;BME280;21680;52.400;16.920;2023-05-28T08:16:36;101336.92;;;16.94;41.96
35577;BME280;21680;52.400;16.920;2023-05-28T08:19:02;101336.19;;;17.00;41.74
35577;BME280;21680;52.400;16.920;2023-05-28T08:21:27;101338.73;;;17.06;41.65
35577;BME280;21680;52.400;16.920;2023-05-28T08:23:54;101332.91;;;17.09;41.46
35577;BME280;21680;52.400;16.920;2023-05-28T08:26:20;101322.90;;;17.10;41.08
35577;BME280;21680;52.400;16.920;2023-05-28T08:28:46;101320.44;;;17.12;40.72
35577;BME280;21680;52.400;16.920;2023-05-28T08:31:12;101319.11;;;17.16;40.74
35577;BME280;21680;52.400;16.920;2023-05-28T08:33:37;101316.47;;;17.25;40.63
35577;BME280;21680;52.400;16.920;2023-05-28T08:36:02;101313.86;;;17.32;40.61
35577;BME280;21680;52.400;16.920;2023-05-28T08:38:29;101308.14;;;17.37;40.31
35577;BME280;21680;52.400;16.920;2023-05-28T08:40:55;101304.66;;;17.43;40.31
35577;BME280;21680;52.400;16.920;2023-05-28T08:43:22;101297.31;;;17.48;40.22
35577;BME280;21680;52.400;16.920;2023-05-28T08:45:50;101293.37;;;17.53;40.00
35577;BME280;21680;52.400;16.920;2023-05-28T08:48:17;101291.52;;;17.60;39.48
35577;BME280;21680;52.400;16.920;2023-05-28T08:50:46;101292.63;;;17.63;39.39
35577;BME280;21680;52.400;16.920;2023-05-28T08:53:16;101288.71;;;17.61;39.16
35577;BME280;21680;52.400;16.920;2023-05-28T08:55:44;101292.02;;;17.64;39.07
35577;BME280;21680;52.400;16.920;2023-05-28T08:58:10;101293.23;;;17.73;39.05
35577;BME280;21680;52.400;16.920;2023-05-28T09:00:37;101290.07;;;17.86;38.91
35577;BME280;21680;52.400;16.920;2023-05-28T09:03:02;101277.44;;;17.91;38.68
35577;BME280;21680;52.400;16.920;2023-05-28T09:05:35;101282.23;;;18.02;38.65
35577;BME280;21680;52.400;16.920;2023-05-28T09:08:02;101277.73;;;18.09;38.43
35577;BME280;21680;52.400;16.920;2023-05-28T09:10:27;101275.98;;;18.14;38.24
35577;BME280;21680;52.400;16.920;2023-05-28T09:12:57;101275.73;;;18.18;38.15
35577;BME280;21680;52.400;16.920;2023-05-28T09:15:23;101275.05;;;18.25;38.20
35577;BME280;21680;52.400;16.920;2023-05-28T09:17:49;101277.45;;;18.35;38.04
35577;BME280;21680;52.400;16.920;2023-05-28T09:20:15;101274.48;;;18.47;37.88
35577;BME280;21680;52.400;16.920;2023-05-28T09:22:40;101273.80;;;18.63;37.68
35577;BME280;21680;52.400;16.920;2023-05-28T09:25:09;101271.91;;;18.72;37.54
35577;BME280;21680;52.400;16.920;2023-05-28T09:27:35;101268.23;;;18.76;37.43
35577;BME280;21680;52.400;16.920;2023-05-28T09:30:08;101273.08;;;18.76;37.19
35577;BME280;21680;52.400;16.920;2023-05-28T09:32:34;101268.78;;;18.78;37.11
35577;BME280;21680;52.400;16.920;2023-05-28T09:35:00;101270.27;;;18.81;36.87
35577;BME280;21680;52.400;16.920;2023-05-28T09:37:29;101270.81;;;18.73;36.61
35577;BME280;21680;52.400;16.920;2023-05-28T09:40:03;101271.56;;;18.75;36.66
35577;BME280;21680;52.400;16.920;2023-05-28T09:42:36;101266.58;;;18.82;36.69
35577;BME280;21680;52.400;16.920;2023-05-28T09:45:05;101268.67;;;18.93;36.48
35577;BME280;21680;52.400;16.920;2023-05-28T09:47:30;101263.09;;;19.06;36.50
35577;BME280;21680;52.400;16.920;2023-05-28T09:49:55;101263.50;;;19.13;36.22
35577;BME280;21680;52.400;16.920;2023-05-28T09:52:22;101260.35;;;19.17;36.10
35577;BME280;21680;52.400;16.920;2023-05-28T09:54:50;101258.19;;;19.17;35.99
35577;BME280;21680;52.400;16.920;2023-05-28T09:57:18;101251.45;;;19.07;35.75
35577;BME280;21680;52.400;16.920;2023-05-28T09:59:50;101250.60;;;18.82;35.41
35577;BME280;21680;52.400;16.920;2023-05-28T10:02:45;101249.23;;;18.79;35.62
35577;BME280;21680;52.400;16.920;2023-05-28T10:05:13;101247.64;;;18.94;35.72
35577;BME280;21680;52.400;16.920;2023-05-28T10:07:41;101247.27;;;19.10;35.73
35577;BME280;21680;52.400;16.920;2023-05-28T10:10:14;101244.43;;;19.24;35.81
35577;BME280;21680;52.400;16.920;2023-05-28T10:12:39;101241.73;;;19.39;35.75
35577;BME280;21680;52.400;16.920;2023-05-28T10:15:06;101246.88;;;19.52;35.64
35577;BME280;21680;52.400;16.920;2023-05-28T10:17:32;101245.73;;;19.60;35.62
35577;BME280;21680;52.400;16.920;2023-05-28T10:19:58;101242.90;;;19.69;35.47
35577;BME280;21680;52.400;16.920;2023-05-28T10:22:24;101246.56;;;19.81;35.46
35577;BME280;21680;52.400;16.920;2023-05-28T10:24:50;101242.69;;;19.92;35.35
35577;BME280;21680;52.400;16.920;2023-05-28T10:27:16;101239.45;;;19.99;35.18
35577;BME280;21680;52.400;16.920;2023-05-28T10:29:43;101237.83;;;20.03;35.15
35577;BME280;21680;52.400;16.920;2023-05-28T10:32:09;101236.62;;;20.10;35.09
35577;BME280;21680;52.400;16.920;2023-05-28T10:34:36;101236.34;;;20.19;34.95
35577;BME280;21680;52.400;16.920;2023-05-28T10:37:06;101240.05;;;20.23;34.88
35577;BME280;21680;52.400;16.920;2023-05-28T10:39:39;101239.66;;;20.28;34.79
35577;BME280;21680;52.400;16.920;2023-05-28T10:42:08;101233.86;;;20.28;34.52
35577;BME280;21680;52.400;16.920;2023-05-28T10:47:37;101229.48;;;20.30;34.44
35577;BME280;21680;52.400;16.920;2023-05-28T10:50:14;101226.77;;;20.35;34.47
35577;BME280;21680;52.400;16.920;2023-05-28T10:52:39;101223.25;;;20.39;34.32
35577;BME280;21680;52.400;16.920;2023-05-28T10:55:09;101219.54;;;20.40;34.13
35577;BME280;21680;52.400;16.920;2023-05-28T11:00:10;101212.30;;;20.37;33.98
35577;BME280;21680;52.400;16.920;2023-05-28T11:02:42;101213.65;;;20.46;33.99
35577;BME280;21680;52.400;16.920;2023-05-28T11:05:08;101214.61;;;20.55;33.86
35577;BME280;21680;52.400;16.920;2023-05-28T11:07:39;101214.04;;;20.62;33.75
35577;BME280;21680;52.400;16.920;2023-05-28T11:10:12;101211.23;;;20.68;33.66
35577;BME280;21680;52.400;16.920;2023-05-28T11:12:41;101205.22;;;20.70;33.48
35577;BME280;21680;52.400;16.920;2023-05-28T11:15:09;101201.83;;;20.79;33.53
35577;BME280;21680;52.400;16.920;2023-05-28T11:17:42;101200.78;;;20.97;33.40
35577;BME280;21680;52.400;16.920;2023-05-28T11:20:19;101198.15;;;21.16;33.30
35577;BME280;21680;52.400;16.920;2023-05-28T11:22:45;101199.30;;;21.32;33.13
35577;BME280;21680;52.400;16.920;2023-05-28T11:25:11;101196.61;;;21.41;32.89
35577;BME280;21680;52.400;16.920;2023-05-28T11:27:37;101191.02;;;21.38;32.90
35577;BME280;21680;52.400;16.920;2023-05-28T11:32:36;101183.88;;;21.34;32.35
35577;BME280;21680;52.400;16.920;2023-05-28T11:35:01;101180.20;;;21.44;32.40
35577;BME280;21680;52.400;16.920;2023-05-28T11:37:32;101172.23;;;21.59;32.04
35577;BME280;21680;52.400;16.920;2023-05-28T11:39:59;101175.49;;;21.77;31.98
35577;BME280;21680;52.400;16.920;2023-05-28T11:42:27;101171.02;;;21.95;32.07
35577;BME280;21680;52.400;16.920;2023-05-28T11:44:53;101176.20;;;22.10;31.91
35577;BME280;21680;52.400;16.920;2023-05-28T11:47:20;101175.40;;;22.13;31.66
35577;BME280;21680;52.400;16.920;2023-05-28T11:49:46;101167.80;;;22.04;31.79
35577;BME280;21680;52.400;16.920;2023-05-28T11:52:20;101161.83;;;22.10;31.89
35577;BME280;21680;52.400;16.920;2023-05-28T11:54:52;101156.89;;;22.25;31.87
35577;BME280;21680;52.400;16.920;2023-05-28T11:57:22;101160.59;;;22.40;31.79
35577;BME280;21680;52.400;16.920;2023-05-28T12:00:00;101159.42;;;22.53;31.84
35577;BME280;21680;52.400;16.920;2023-05-28T12:02:26;101158.13;;;22.60;31.75
35577;BME280;21680;52.400;16.920;2023-05-28T12:05:00;101158.90;;;22.68;31.29
35577;BME280;21680;52.400;16.920;2023-05-28T12:07:34;101154.89;;;22.65;30.95
35577;BME280;21680;52.400;16.920;2023-05-28T12:12:29;101153.73;;;22.79;30.82
35577;BME280;21680;52.400;16.920;2023-05-28T12:14:57;101154.70;;;22.89;30.99
35577;BME280;21680;52.400;16.920;2023-05-28T12:17:23;101154.20;;;22.97;30.70
35577;BME280;21680;52.400;16.920;2023-05-28T12:19:49;101154.90;;;23.06;30.75
35577;BME280;21680;52.400;16.920;2023-05-28T12:22:16;101161.05;;;23.17;30.61
35577;BME280;21680;52.400;16.920;2023-05-28T12:24:51;101157.30;;;23.34;30.33
35577;BME280;21680;52.400;16.920;2023-05-28T12:27:18;101156.45;;;23.43;30.51
35577;BME280;21680;52.400;16.920;2023-05-28T12:29:43;101151.05;;;23.51;30.29
35577;BME280;21680;52.400;16.920;2023-05-28T12:32:09;101147.40;;;23.55;30.19
35577;BME280;21680;52.400;16.920;2023-05-28T12:34:34;101146.34;;;23.62;30.16
35577;BME280;21680;52.400;16.920;2023-05-28T12:37:00;101143.64;;;23.72;29.81
35577;BME280;21680;52.400;16.920;2023-05-28T12:39:25;101136.96;;;23.57;29.75
35577;BME280;21680;52.400;16.920;2023-05-28T12:41:50;101133.33;;;23.57;29.08
35577;BME280;21680;52.400;16.920;2023-05-28T12:44:15;101132.73;;;23.38;28.82
35577;BME280;21680;52.400;16.920;2023-05-28T12:46:41;101131.09;;;23.38;28.86
35577;BME280;21680;52.400;16.920;2023-05-28T12:49:06;101134.02;;;23.40;28.73